Winter Haven, Florida
Current Conditions -  °F | °C
As of 6:53 PM on Saturday 22 Nov 2014 (Local Time) from KGIF Reporting Station
Overcast Overcast  
Wind Chill: 70°   Ceiling: 1200
Heat Index: 70°   Visibility: 10mi
Dew Point: 67°   Wind: 14mph
Humidity: 90%   Direction: 90°E
Pressure: 30.13"   Gusts: NA
Location:  28.02°N, 81.73°W
Report Text: KGIF 222353Z AUTO 09012KT 10SM BKN012 OVC018 21/19 A3013 RMK AO2 SLP200 T02110194 10222 20206 56007
Loading
Personal Weather Stations






























Interactive Weather Map New forecast layout! Learn more

10-Day Weather Forecast

Advertisements
Track Severe Weather on mobile